sensor_id;sensor_type;location;lat;lon;timestamp;temperature;humidity
17452;DHT22;8843;48.838;9.324;2023-08-06T00:00:50;19.70;84.00
17452;DHT22;8843;48.838;9.324;2023-08-06T00:03:17;19.70;84.00
17452;DHT22;8843;48.838;9.324;2023-08-06T00:05:44;19.70;84.40
17452;DHT22;8843;48.838;9.324;2023-08-06T00:08:11;19.70;84.30
17452;DHT22;8843;48.838;9.324;2023-08-06T00:10:39;19.70;84.30
17452;DHT22;8843;48.838;9.324;2023-08-06T00:13:06;19.70;84.40
17452;DHT22;8843;48.838;9.324;2023-08-06T00:15:33;19.70;85.00
17452;DHT22;8843;48.838;9.324;2023-08-06T00:18:00;19.70;84.40
17452;DHT22;8843;48.838;9.324;2023-08-06T00:20:27;19.70;84.40
17452;DHT22;8843;48.838;9.324;2023-08-06T00:22:53;19.70;85.20
17452;DHT22;8843;48.838;9.324;2023-08-06T00:25:20;19.60;84.60
17452;DHT22;8843;48.838;9.324;2023-08-06T00:27:48;19.60;84.50
17452;DHT22;8843;48.838;9.324;2023-08-06T00:30:16;19.60;84.70
17452;DHT22;8843;48.838;9.324;2023-08-06T00:32:42;19.60;84.40
17452;DHT22;8843;48.838;9.324;2023-08-06T00:35:10;19.60;84.70
17452;DHT22;8843;48.838;9.324;2023-08-06T00:37:39;19.60;84.50
17452;DHT22;8843;48.838;9.324;2023-08-06T00:40:07;19.60;84.60
17452;DHT22;8843;48.838;9.324;2023-08-06T00:42:34;19.60;84.30
17452;DHT22;8843;48.838;9.324;2023-08-06T00:45:03;19.70;84.40
17452;DHT22;8843;48.838;9.324;2023-08-06T00:47:31;19.70;84.30
17452;DHT22;8843;48.838;9.324;2023-08-06T00:49:57;19.60;84.30
17452;DHT22;8843;48.838;9.324;2023-08-06T00:52:24;19.60;84.40
17452;DHT22;8843;48.838;9.324;2023-08-06T00:54:52;19.60;84.40
17452;DHT22;8843;48.838;9.324;2023-08-06T00:57:20;19.60;84.20
17452;DHT22;8843;48.838;9.324;2023-08-06T00:59:47;19.70;84.30
17452;DHT22;8843;48.838;9.324;2023-08-06T01:02:15;19.60;85.00
17452;DHT22;8843;48.838;9.324;2023-08-06T01:04:42;19.60;84.30
17452;DHT22;8843;48.838;9.324;2023-08-06T01:07:19;19.60;85.10
17452;DHT22;8843;48.838;9.324;2023-08-06T01:09:56;19.60;84.50
17452;DHT22;8843;48.838;9.324;2023-08-06T01:12:33;19.60;84.40
17452;DHT22;8843;48.838;9.324;2023-08-06T01:15:06;19.60;84.40
17452;DHT22;8843;48.838;9.324;2023-08-06T01:17:36;19.60;84.60
17452;DHT22;8843;48.838;9.324;2023-08-06T01:20:04;19.60;84.40
17452;DHT22;8843;48.838;9.324;2023-08-06T01:22:32;19.60;84.30
17452;DHT22;8843;48.838;9.324;2023-08-06T01:24:59;19.60;84.40
17452;DHT22;8843;48.838;9.324;2023-08-06T01:27:32;19.60;84.40
17452;DHT22;8843;48.838;9.324;2023-08-06T01:30:03;19.60;84.40
17452;DHT22;8843;48.838;9.324;2023-08-06T01:32:34;19.60;84.40
17452;DHT22;8843;48.838;9.324;2023-08-06T01:35:03;19.60;84.50
17452;DHT22;8843;48.838;9.324;2023-08-06T01:37:32;19.60;84.40
17452;DHT22;8843;48.838;9.324;2023-08-06T01:39:59;19.60;85.30
17452;DHT22;8843;48.838;9.324;2023-08-06T01:42:26;19.60;84.40
17452;DHT22;8843;48.838;9.324;2023-08-06T01:44:53;19.60;84.40
17452;DHT22;8843;48.838;9.324;2023-08-06T01:47:20;19.60;84.50
17452;DHT22;8843;48.838;9.324;2023-08-06T01:49:47;19.60;84.30
17452;DHT22;8843;48.838;9.324;2023-08-06T01:52:14;19.60;84.50
17452;DHT22;8843;48.838;9.324;2023-08-06T01:54:42;19.60;84.40
17452;DHT22;8843;48.838;9.324;2023-08-06T01:57:09;19.60;84.40
17452;DHT22;8843;48.838;9.324;2023-08-06T01:59:36;19.50;84.40
17452;DHT22;8843;48.838;9.324;2023-08-06T02:02:03;19.50;84.60
17452;DHT22;8843;48.838;9.324;2023-08-06T02:04:30;19.50;84.50
17452;DHT22;8843;48.838;9.324;2023-08-06T02:06:57;19.50;84.60
17452;DHT22;8843;48.838;9.324;2023-08-06T02:09:24;19.50;84.50
17452;DHT22;8843;48.838;9.324;2023-08-06T02:11:52;19.50;84.60
17452;DHT22;8843;48.838;9.324;2023-08-06T02:14:19;19.50;84.50
17452;DHT22;8843;48.838;9.324;2023-08-06T02:16:46;19.50;84.50
17452;DHT22;8843;48.838;9.324;2023-08-06T02:19:13;19.50;84.50
17452;DHT22;8843;48.838;9.324;2023-08-06T02:21:39;19.50;84.40
17452;DHT22;8843;48.838;9.324;2023-08-06T02:24:06;19.50;84.50
17452;DHT22;8843;48.838;9.324;2023-08-06T02:26:33;19.50;84.40
17452;DHT22;8843;48.838;9.324;2023-08-06T02:29:01;19.50;84.40
17452;DHT22;8843;48.838;9.324;2023-08-06T02:31:28;19.40;84.30
17452;DHT22;8843;48.838;9.324;2023-08-06T02:33:55;19.50;84.30
17452;DHT22;8843;48.838;9.324;2023-08-06T02:36:24;19.40;85.00
17452;DHT22;8843;48.838;9.324;2023-08-06T02:38:54;19.40;84.30
17452;DHT22;8843;48.838;9.324;2023-08-06T02:41:21;19.40;84.40
17452;DHT22;8843;48.838;9.324;2023-08-06T02:43:48;19.40;84.40
17452;DHT22;8843;48.838;9.324;2023-08-06T02:46:16;19.40;84.30
17452;DHT22;8843;48.838;9.324;2023-08-06T02:48:43;19.40;85.00
17452;DHT22;8843;48.838;9.324;2023-08-06T02:51:10;19.40;84.20
17452;DHT22;8843;48.838;9.324;2023-08-06T02:53:37;19.40;84.20
17452;DHT22;8843;48.838;9.324;2023-08-06T02:56:04;19.40;84.30
17452;DHT22;8843;48.838;9.324;2023-08-06T02:58:31;19.40;84.30
17452;DHT22;8843;48.838;9.324;2023-08-06T03:01:01;19.40;84.30
17452;DHT22;8843;48.838;9.324;2023-08-06T03:03:31;19.40;84.20
17452;DHT22;8843;48.838;9.324;2023-08-06T03:05:58;19.40;84.90
17452;DHT22;8843;48.838;9.324;2023-08-06T03:08:25;19.40;84.20
17452;DHT22;8843;48.838;9.324;2023-08-06T03:10:52;19.40;84.10
17452;DHT22;8843;48.838;9.324;2023-08-06T03:13:19;19.40;84.10
17452;DHT22;8843;48.838;9.324;2023-08-06T03:15:52;19.40;84.30
17452;DHT22;8843;48.838;9.324;2023-08-06T03:18:20;19.40;84.90
17452;DHT22;8843;48.838;9.324;2023-08-06T03:20:49;19.40;84.20
17452;DHT22;8843;48.838;9.324;2023-08-06T03:23:16;19.40;84.30
17452;DHT22;8843;48.838;9.324;2023-08-06T03:25:42;19.40;84.20
17452;DHT22;8843;48.838;9.324;2023-08-06T03:28:09;19.40;84.20
17452;DHT22;8843;48.838;9.324;2023-08-06T03:30:36;19.40;84.20
17452;DHT22;8843;48.838;9.324;2023-08-06T03:33:03;19.40;84.10
17452;DHT22;8843;48.838;9.324;2023-08-06T03:35:30;19.30;84.20
17452;DHT22;8843;48.838;9.324;2023-08-06T03:37:59;19.40;84.20
17452;DHT22;8843;48.838;9.324;2023-08-06T03:40:25;19.40;84.30
17452;DHT22;8843;48.838;9.324;2023-08-06T03:42:52;19.40;84.10
17452;DHT22;8843;48.838;9.324;2023-08-06T03:45:19;19.40;84.20
17452;DHT22;8843;48.838;9.324;2023-08-06T03:47:46;19.30;84.10
17452;DHT22;8843;48.838;9.324;2023-08-06T03:50:13;19.30;83.90
17452;DHT22;8843;48.838;9.324;2023-08-06T03:52:40;19.30;84.00
17452;DHT22;8843;48.838;9.324;2023-08-06T03:55:08;19.30;84.00
17452;DHT22;8843;48.838;9.324;2023-08-06T03:57:35;19.30;84.10
17452;DHT22;8843;48.838;9.324;2023-08-06T04:00:02;19.30;84.10
17452;DHT22;8843;48.838;9.324;2023-08-06T04:02:30;19.30;83.80
17452;DHT22;8843;48.838;9.324;2023-08-06T04:04:57;19.30;84.40
17452;DHT22;8843;48.838;9.324;2023-08-06T04:07:24;19.30;84.80
17452;DHT22;8843;48.838;9.324;2023-08-06T04:09:53;19.30;84.10
17452;DHT22;8843;48.838;9.324;2023-08-06T04:12:22;19.30;83.80
17452;DHT22;8843;48.838;9.324;2023-08-06T04:14:50;19.20;84.00
17452;DHT22;8843;48.838;9.324;2023-08-06T04:17:17;19.20;83.90
17452;DHT22;8843;48.838;9.324;2023-08-06T04:19:46;19.20;83.90
17452;DHT22;8843;48.838;9.324;2023-08-06T04:22:14;19.30;84.10
17452;DHT22;8843;48.838;9.324;2023-08-06T04:24:41;19.20;83.80
17452;DHT22;8843;48.838;9.324;2023-08-06T04:27:08;19.20;83.90
17452;DHT22;8843;48.838;9.324;2023-08-06T04:29:37;19.30;84.00
17452;DHT22;8843;48.838;9.324;2023-08-06T04:32:06;19.20;84.00
17452;DHT22;8843;48.838;9.324;2023-08-06T04:34:33;19.20;84.00
17452;DHT22;8843;48.838;9.324;2023-08-06T04:37:00;19.20;84.00
17452;DHT22;8843;48.838;9.324;2023-08-06T04:39:27;19.20;84.10
17452;DHT22;8843;48.838;9.324;2023-08-06T04:41:55;19.20;84.00
17452;DHT22;8843;48.838;9.324;2023-08-06T04:44:22;19.20;84.00
17452;DHT22;8843;48.838;9.324;2023-08-06T04:46:50;19.20;84.10
17452;DHT22;8843;48.838;9.324;2023-08-06T04:49:17;19.20;84.10
17452;DHT22;8843;48.838;9.324;2023-08-06T04:51:44;19.20;84.00
17452;DHT22;8843;48.838;9.324;2023-08-06T04:54:11;19.20;84.10
17452;DHT22;8843;48.838;9.324;2023-08-06T04:56:38;19.20;84.00
17452;DHT22;8843;48.838;9.324;2023-08-06T04:59:05;19.20;84.70
17452;DHT22;8843;48.838;9.324;2023-08-06T05:01:32;19.20;84.20
17452;DHT22;8843;48.838;9.324;2023-08-06T05:04:00;19.20;84.10
17452;DHT22;8843;48.838;9.324;2023-08-06T05:06:27;19.20;84.20
17452;DHT22;8843;48.838;9.324;2023-08-06T05:08:54;19.20;84.30
17452;DHT22;8843;48.838;9.324;2023-08-06T05:11:21;19.20;84.10
17452;DHT22;8843;48.838;9.324;2023-08-06T05:13:49;19.20;84.20
17452;DHT22;8843;48.838;9.324;2023-08-06T05:16:16;19.20;84.10
17452;DHT22;8843;48.838;9.324;2023-08-06T05:18:43;19.20;84.20
17452;DHT22;8843;48.838;9.324;2023-08-06T05:21:11;19.20;84.20
17452;DHT22;8843;48.838;9.324;2023-08-06T05:23:38;19.20;84.20
17452;DHT22;8843;48.838;9.324;2023-08-06T05:26:05;19.10;84.20
17452;DHT22;8843;48.838;9.324;2023-08-06T05:28:32;19.20;84.20
17452;DHT22;8843;48.838;9.324;2023-08-06T05:30:59;19.10;84.10
17452;DHT22;8843;48.838;9.324;2023-08-06T05:33:29;19.10;84.10
17452;DHT22;8843;48.838;9.324;2023-08-06T05:35:56;19.10;84.20
17452;DHT22;8843;48.838;9.324;2023-08-06T05:38:24;19.10;84.30
17452;DHT22;8843;48.838;9.324;2023-08-06T05:40:51;19.10;84.50
17452;DHT22;8843;48.838;9.324;2023-08-06T05:43:18;19.10;84.50
17452;DHT22;8843;48.838;9.324;2023-08-06T05:45:45;18.80;85.00
17452;DHT22;8843;48.838;9.324;2023-08-06T05:48:12;19.00;85.40
17452;DHT22;8843;48.838;9.324;2023-08-06T05:50:39;19.10;84.80
17452;DHT22;8843;48.838;9.324;2023-08-06T05:53:06;19.10;84.80
17452;DHT22;8843;48.838;9.324;2023-08-06T05:55:34;19.10;84.70
17452;DHT22;8843;48.838;9.324;2023-08-06T05:58:01;19.10;84.50
17452;DHT22;8843;48.838;9.324;2023-08-06T06:00:28;19.10;84.50
17452;DHT22;8843;48.838;9.324;2023-08-06T06:02:55;19.10;84.50
17452;DHT22;8843;48.838;9.324;2023-08-06T06:05:22;19.00;86.60
17452;DHT22;8843;48.838;9.324;2023-08-06T06:07:49;19.00;85.20
17452;DHT22;8843;48.838;9.324;2023-08-06T06:10:16;19.10;85.00
17452;DHT22;8843;48.838;9.324;2023-08-06T06:12:44;19.10;84.90
17452;DHT22;8843;48.838;9.324;2023-08-06T06:15:11;19.10;84.80
17452;DHT22;8843;48.838;9.324;2023-08-06T06:17:38;19.10;84.70
17452;DHT22;8843;48.838;9.324;2023-08-06T06:20:06;19.10;84.70
17452;DHT22;8843;48.838;9.324;2023-08-06T06:22:33;19.10;84.80
17452;DHT22;8843;48.838;9.324;2023-08-06T06:25:00;19.00;84.90
17452;DHT22;8843;48.838;9.324;2023-08-06T06:27:27;19.00;84.90
17452;DHT22;8843;48.838;9.324;2023-08-06T06:29:55;19.00;85.20
17452;DHT22;8843;48.838;9.324;2023-08-06T06:32:22;19.00;85.00
17452;DHT22;8843;48.838;9.324;2023-08-06T06:34:49;19.00;84.90
17452;DHT22;8843;48.838;9.324;2023-08-06T06:37:16;19.00;85.10
17452;DHT22;8843;48.838;9.324;2023-08-06T06:39:43;19.00;85.20
17452;DHT22;8843;48.838;9.324;2023-08-06T06:42:10;18.90;85.20
17452;DHT22;8843;48.838;9.324;2023-08-06T06:44:37;18.90;85.10
17452;DHT22;8843;48.838;9.324;2023-08-06T06:47:05;19.00;85.10
17452;DHT22;8843;48.838;9.324;2023-08-06T06:49:32;18.90;85.10
17452;DHT22;8843;48.838;9.324;2023-08-06T06:51:59;19.00;85.00
17452;DHT22;8843;48.838;9.324;2023-08-06T06:54:26;19.00;84.90
17452;DHT22;8843;48.838;9.324;2023-08-06T06:56:53;19.00;84.80
17452;DHT22;8843;48.838;9.324;2023-08-06T06:59:20;19.00;84.90
17452;DHT22;8843;48.838;9.324;2023-08-06T07:01:47;19.00;84.80
17452;DHT22;8843;48.838;9.324;2023-08-06T07:04:15;19.00;84.90
17452;DHT22;8843;48.838;9.324;2023-08-06T07:06:42;19.00;84.90
17452;DHT22;8843;48.838;9.324;2023-08-06T07:09:09;19.00;84.90
17452;DHT22;8843;48.838;9.324;2023-08-06T07:11:35;19.00;85.20
17452;DHT22;8843;48.838;9.324;2023-08-06T07:14:02;18.90;85.80
17452;DHT22;8843;48.838;9.324;2023-08-06T07:16:29;18.80;87.40
17452;DHT22;8843;48.838;9.324;2023-08-06T07:18:56;18.90;86.10
17452;DHT22;8843;48.838;9.324;2023-08-06T07:21:24;18.60;85.90
17452;DHT22;8843;48.838;9.324;2023-08-06T07:23:51;18.20;87.10
17452;DHT22;8843;48.838;9.324;2023-08-06T07:26:18;18.40;89.10
17452;DHT22;8843;48.838;9.324;2023-08-06T07:28:45;18.90;86.50
17452;DHT22;8843;48.838;9.324;2023-08-06T07:31:12;18.50;86.60
17452;DHT22;8843;48.838;9.324;2023-08-06T07:33:38;18.30;87.50
17452;DHT22;8843;48.838;9.324;2023-08-06T07:36:09;18.30;88.60
17452;DHT22;8843;48.838;9.324;2023-08-06T07:38:37;18.10;87.30
17452;DHT22;8843;48.838;9.324;2023-08-06T07:41:04;18.00;88.40
17452;DHT22;8843;48.838;9.324;2023-08-06T07:43:31;18.30;88.50
17452;DHT22;8843;48.838;9.324;2023-08-06T07:45:58;18.20;86.80
17452;DHT22;8843;48.838;9.324;2023-08-06T07:48:26;18.10;87.40
17452;DHT22;8843;48.838;9.324;2023-08-06T07:50:53;18.10;87.80
17452;DHT22;8843;48.838;9.324;2023-08-06T07:53:20;18.10;88.30
17452;DHT22;8843;48.838;9.324;2023-08-06T07:55:52;17.90;88.00
17452;DHT22;8843;48.838;9.324;2023-08-06T07:58:20;18.10;89.60
17452;DHT22;8843;48.838;9.324;2023-08-06T08:00:47;18.10;87.60
17452;DHT22;8843;48.838;9.324;2023-08-06T08:03:14;17.90;89.10
17452;DHT22;8843;48.838;9.324;2023-08-06T08:05:41;17.90;88.60
17452;DHT22;8843;48.838;9.324;2023-08-06T08:08:08;18.20;87.80
17452;DHT22;8843;48.838;9.324;2023-08-06T08:10:36;18.20;87.30
17452;DHT22;8843;48.838;9.324;2023-08-06T08:13:05;18.40;88.70
17452;DHT22;8843;48.838;9.324;2023-08-06T08:15:33;18.40;86.70
17452;DHT22;8843;48.838;9.324;2023-08-06T08:18:00;18.30;87.20
17452;DHT22;8843;48.838;9.324;2023-08-06T08:20:27;18.40;87.90
17452;DHT22;8843;48.838;9.324;2023-08-06T08:22:57;18.30;88.00
17452;DHT22;8843;48.838;9.324;2023-08-06T08:25:24;18.30;87.70
17452;DHT22;8843;48.838;9.324;2023-08-06T08:27:52;18.60;88.10
17452;DHT22;8843;48.838;9.324;2023-08-06T08:30:20;18.30;87.30
17452;DHT22;8843;48.838;9.324;2023-08-06T08:32:47;18.30;88.80
17452;DHT22;8843;48.838;9.324;2023-08-06T08:35:14;18.40;88.30
17452;DHT22;8843;48.838;9.324;2023-08-06T08:37:41;18.60;88.00
17452;DHT22;8843;48.838;9.324;2023-08-06T08:40:09;18.70;87.80
17452;DHT22;8843;48.838;9.324;2023-08-06T08:42:36;18.80;86.90
17452;DHT22;8843;48.838;9.324;2023-08-06T08:45:05;18.80;86.80
17452;DHT22;8843;48.838;9.324;2023-08-06T08:47:35;18.80;86.90
17452;DHT22;8843;48.838;9.324;2023-08-06T08:50:03;18.80;86.90
17452;DHT22;8843;48.838;9.324;2023-08-06T08:52:31;18.80;86.60
17452;DHT22;8843;48.838;9.324;2023-08-06T08:55:01;18.80;86.40
17452;DHT22;8843;48.838;9.324;2023-08-06T08:57:28;18.70;86.50
17452;DHT22;8843;48.838;9.324;2023-08-06T08:59:55;18.70;86.40
17452;DHT22;8843;48.838;9.324;2023-08-06T09:02:24;18.80;86.70
17452;DHT22;8843;48.838;9.324;2023-08-06T09:04:54;18.80;86.60
17452;DHT22;8843;48.838;9.324;2023-08-06T09:07:21;18.80;86.40
17452;DHT22;8843;48.838;9.324;2023-08-06T09:09:49;18.70;86.40
17452;DHT22;8843;48.838;9.324;2023-08-06T09:12:18;18.70;86.40
17452;DHT22;8843;48.838;9.324;2023-08-06T09:14:45;18.70;86.50
17452;DHT22;8843;48.838;9.324;2023-08-06T09:17:12;18.70;86.40
17452;DHT22;8843;48.838;9.324;2023-08-06T09:19:42;18.70;87.10
17452;DHT22;8843;48.838;9.324;2023-08-06T09:22:14;18.80;86.60
17452;DHT22;8843;48.838;9.324;2023-08-06T09:24:41;18.70;86.40
17452;DHT22;8843;48.838;9.324;2023-08-06T09:27:11;18.70;86.50
17452;DHT22;8843;48.838;9.324;2023-08-06T09:29:42;18.70;86.50
17452;DHT22;8843;48.838;9.324;2023-08-06T09:32:10;18.70;86.40
17452;DHT22;8843;48.838;9.324;2023-08-06T09:34:39;18.80;86.80
17452;DHT22;8843;48.838;9.324;2023-08-06T09:37:08;18.70;86.30
17452;DHT22;8843;48.838;9.324;2023-08-06T09:39:39;18.70;86.50
17452;DHT22;8843;48.838;9.324;2023-08-06T09:42:06;18.70;86.80
17452;DHT22;8843;48.838;9.324;2023-08-06T09:44:33;18.70;86.90
17452;DHT22;8843;48.838;9.324;2023-08-06T09:47:02;18.70;86.80
17452;DHT22;8843;48.838;9.324;2023-08-06T09:49:41;18.70;86.70
17452;DHT22;8843;48.838;9.324;2023-08-06T09:52:11;18.70;86.80
17452;DHT22;8843;48.838;9.324;2023-08-06T09:54:40;18.70;86.70
17452;DHT22;8843;48.838;9.324;2023-08-06T09:57:07;18.70;86.40
17452;DHT22;8843;48.838;9.324;2023-08-06T09:59:35;18.70;86.60
17452;DHT22;8843;48.838;9.324;2023-08-06T10:02:07;18.70;86.60
17452;DHT22;8843;48.838;9.324;2023-08-06T10:04:36;18.80;86.90
17452;DHT22;8843;48.838;9.324;2023-08-06T10:07:04;18.70;86.80
17452;DHT22;8843;48.838;9.324;2023-08-06T10:09:31;18.70;86.70
17452;DHT22;8843;48.838;9.324;2023-08-06T10:12:00;18.70;86.90
17452;DHT22;8843;48.838;9.324;2023-08-06T10:14:29;18.70;86.80
17452;DHT22;8843;48.838;9.324;2023-08-06T10:16:57;18.70;87.10
17452;DHT22;8843;48.838;9.324;2023-08-06T10:19:25;18.60;86.90
17452;DHT22;8843;48.838;9.324;2023-08-06T10:22:17;18.60;86.90
17452;DHT22;8843;48.838;9.324;2023-08-06T10:24:51;18.70;86.90
17452;DHT22;8843;48.838;9.324;2023-08-06T10:27:28;18.70;87.10
17452;DHT22;8843;48.838;9.324;2023-08-06T10:29:56;18.70;87.10
17452;DHT22;8843;48.838;9.324;2023-08-06T10:32:47;18.60;87.00
17452;DHT22;8843;48.838;9.324;2023-08-06T10:35:28;18.70;87.50
17452;DHT22;8843;48.838;9.324;2023-08-06T10:38:04;18.60;87.20
17452;DHT22;8843;48.838;9.324;2023-08-06T10:40:32;18.70;87.30
17452;DHT22;8843;48.838;9.324;2023-08-06T10:43:01;18.70;87.20
17452;DHT22;8843;48.838;9.324;2023-08-06T10:45:28;18.50;88.50
17452;DHT22;8843;48.838;9.324;2023-08-06T10:47:56;18.60;88.40
17452;DHT22;8843;48.838;9.324;2023-08-06T10:50:24;18.70;87.60
17452;DHT22;8843;48.838;9.324;2023-08-06T10:52:51;18.80;87.30
17452;DHT22;8843;48.838;9.324;2023-08-06T10:55:26;18.70;86.80
17452;DHT22;8843;48.838;9.324;2023-08-06T10:57:53;18.80;86.90
17452;DHT22;8843;48.838;9.324;2023-08-06T11:00:22;18.70;86.80
17452;DHT22;8843;48.838;9.324;2023-08-06T11:02:50;18.70;86.80
17452;DHT22;8843;48.838;9.324;2023-08-06T11:05:17;18.70;86.80
17452;DHT22;8843;48.838;9.324;2023-08-06T11:07:44;18.70;86.70
17452;DHT22;8843;48.838;9.324;2023-08-06T11:10:13;18.80;85.70
17452;DHT22;8843;48.838;9.324;2023-08-06T11:12:40;18.70;86.10
17452;DHT22;8843;48.838;9.324;2023-08-06T11:15:08;18.80;85.90
17452;DHT22;8843;48.838;9.324;2023-08-06T11:17:37;18.80;84.90
17452;DHT22;8843;48.838;9.324;2023-08-06T11:20:06;18.40;84.80
17452;DHT22;8843;48.838;9.324;2023-08-06T11:22:33;18.40;85.30
17452;DHT22;8843;48.838;9.324;2023-08-06T11:25:00;18.30;85.00
17452;DHT22;8843;48.838;9.324;2023-08-06T11:27:28;18.30;84.70
17452;DHT22;8843;48.838;9.324;2023-08-06T11:29:55;18.40;85.20
17452;DHT22;8843;48.838;9.324;2023-08-06T11:32:22;18.40;85.50
17452;DHT22;8843;48.838;9.324;2023-08-06T11:34:50;18.40;85.10
17452;DHT22;8843;48.838;9.324;2023-08-06T11:37:20;18.40;85.00
17452;DHT22;8843;48.838;9.324;2023-08-06T11:39:48;18.40;85.10
17452;DHT22;8843;48.838;9.324;2023-08-06T11:42:15;18.50;85.10
17452;DHT22;8843;48.838;9.324;2023-08-06T11:44:42;18.40;84.50
17452;DHT22;8843;48.838;9.324;2023-08-06T11:47:13;18.40;84.30
17452;DHT22;8843;48.838;9.324;2023-08-06T11:49:42;18.40;84.50
17452;DHT22;8843;48.838;9.324;2023-08-06T11:52:14;18.30;84.70
17452;DHT22;8843;48.838;9.324;2023-08-06T11:54:42;18.30;84.90
17452;DHT22;8843;48.838;9.324;2023-08-06T11:57:09;18.20;82.50
17452;DHT22;8843;48.838;9.324;2023-08-06T11:59:38;18.20;84.10
17452;DHT22;8843;48.838;9.324;2023-08-06T12:02:07;18.30;84.30
17452;DHT22;8843;48.838;9.324;2023-08-06T12:04:59;18.30;84.90
17452;DHT22;8843;48.838;9.324;2023-08-06T12:07:29;18.20;84.60
17452;DHT22;8843;48.838;9.324;2023-08-06T12:09:56;18.20;84.80
17452;DHT22;8843;48.838;9.324;2023-08-06T12:12:23;18.20;84.40
17452;DHT22;8843;48.838;9.324;2023-08-06T12:14:50;18.20;84.80
17452;DHT22;8843;48.838;9.324;2023-08-06T12:17:17;18.10;85.50
17452;DHT22;8843;48.838;9.324;2023-08-06T12:19:45;18.10;85.60
17452;DHT22;8843;48.838;9.324;2023-08-06T12:22:13;18.00;84.90
17452;DHT22;8843;48.838;9.324;2023-08-06T12:24:42;18.10;84.90
17452;DHT22;8843;48.838;9.324;2023-08-06T12:27:09;18.00;84.80
17452;DHT22;8843;48.838;9.324;2023-08-06T12:29:36;18.10;85.20
17452;DHT22;8843;48.838;9.324;2023-08-06T12:32:04;18.00;85.30
17452;DHT22;8843;48.838;9.324;2023-08-06T12:34:31;17.90;85.00
17452;DHT22;8843;48.838;9.324;2023-08-06T12:36:58;18.10;85.60
17452;DHT22;8843;48.838;9.324;2023-08-06T12:39:25;18.10;85.30
17452;DHT22;8843;48.838;9.324;2023-08-06T12:41:55;18.10;85.00
17452;DHT22;8843;48.838;9.324;2023-08-06T12:44:23;18.10;85.30
17452;DHT22;8843;48.838;9.324;2023-08-06T12:46:50;18.10;85.20
17452;DHT22;8843;48.838;9.324;2023-08-06T12:49:17;18.00;84.90
17452;DHT22;8843;48.838;9.324;2023-08-06T12:51:46;18.00;84.80
17452;DHT22;8843;48.838;9.324;2023-08-06T12:54:13;17.90;84.90
17452;DHT22;8843;48.838;9.324;2023-08-06T12:56:40;18.00;85.20
17452;DHT22;8843;48.838;9.324;2023-08-06T12:59:08;18.10;85.30
17452;DHT22;8843;48.838;9.324;2023-08-06T13:01:37;18.10;85.10
17452;DHT22;8843;48.838;9.324;2023-08-06T13:04:04;18.10;84.60
17452;DHT22;8843;48.838;9.324;2023-08-06T13:06:31;18.00;84.00
17452;DHT22;8843;48.838;9.324;2023-08-06T13:09:01;18.10;85.20
17452;DHT22;8843;48.838;9.324;2023-08-06T13:11:29;18.10;84.20
17452;DHT22;8843;48.838;9.324;2023-08-06T13:13:58;17.90;84.00
17452;DHT22;8843;48.838;9.324;2023-08-06T13:16:27;18.00;84.10
17452;DHT22;8843;48.838;9.324;2023-08-06T13:18:54;18.00;84.20
17452;DHT22;8843;48.838;9.324;2023-08-06T13:21:21;18.00;84.10
17452;DHT22;8843;48.838;9.324;2023-08-06T13:23:48;18.00;84.10
17452;DHT22;8843;48.838;9.324;2023-08-06T13:26:15;18.00;84.30
17452;DHT22;8843;48.838;9.324;2023-08-06T13:28:42;18.00;84.30
17452;DHT22;8843;48.838;9.324;2023-08-06T13:31:10;18.00;83.30
17452;DHT22;8843;48.838;9.324;2023-08-06T13:33:38;18.00;84.00
17452;DHT22;8843;48.838;9.324;2023-08-06T13:36:05;18.00;83.80
17452;DHT22;8843;48.838;9.324;2023-08-06T13:38:31;18.00;83.20
17452;DHT22;8843;48.838;9.324;2023-08-06T13:40:58;18.00;83.70
17452;DHT22;8843;48.838;9.324;2023-08-06T13:43:25;18.00;83.80
17452;DHT22;8843;48.838;9.324;2023-08-06T13:45:53;18.00;83.80
17452;DHT22;8843;48.838;9.324;2023-08-06T13:48:20;18.00;83.30
17452;DHT22;8843;48.838;9.324;2023-08-06T13:50:48;18.00;83.50
17452;DHT22;8843;48.838;9.324;2023-08-06T13:53:15;18.00;83.20
17452;DHT22;8843;48.838;9.324;2023-08-06T13:55:42;18.00;82.40
17452;DHT22;8843;48.838;9.324;2023-08-06T13:58:09;17.90;83.30
17452;DHT22;8843;48.838;9.324;2023-08-06T14:00:36;17.90;83.10
17452;DHT22;8843;48.838;9.324;2023-08-06T14:03:03;18.00;82.40
17452;DHT22;8843;48.838;9.324;2023-08-06T14:05:29;18.00;81.90
17452;DHT22;8843;48.838;9.324;2023-08-06T14:07:58;17.90;82.50
17452;DHT22;8843;48.838;9.324;2023-08-06T14:10:25;18.00;82.40
17452;DHT22;8843;48.838;9.324;2023-08-06T14:12:51;18.00;82.30
17452;DHT22;8843;48.838;9.324;2023-08-06T14:15:18;18.00;82.30
17452;DHT22;8843;48.838;9.324;2023-08-06T14:17:45;18.00;81.80
17452;DHT22;8843;48.838;9.324;2023-08-06T14:20:12;18.00;81.90
17452;DHT22;8843;48.838;9.324;2023-08-06T14:22:39;18.00;82.20
17452;DHT22;8843;48.838;9.324;2023-08-06T14:25:08;18.00;82.30
17452;DHT22;8843;48.838;9.324;2023-08-06T14:27:34;18.00;82.60
17452;DHT22;8843;48.838;9.324;2023-08-06T14:30:01;18.00;82.90
17452;DHT22;8843;48.838;9.324;2023-08-06T14:32:29;18.00;82.70
17452;DHT22;8843;48.838;9.324;2023-08-06T14:34:55;18.00;83.10
17452;DHT22;8843;48.838;9.324;2023-08-06T14:37:23;18.10;83.50
17452;DHT22;8843;48.838;9.324;2023-08-06T14:39:50;18.00;82.90
17452;DHT22;8843;48.838;9.324;2023-08-06T14:42:18;18.00;82.80
17452;DHT22;8843;48.838;9.324;2023-08-06T14:44:45;18.00;83.20
17452;DHT22;8843;48.838;9.324;2023-08-06T14:47:12;18.00;83.50
17452;DHT22;8843;48.838;9.324;2023-08-06T14:49:39;18.00;83.40
17452;DHT22;8843;48.838;9.324;2023-08-06T14:52:06;18.00;82.20
17452;DHT22;8843;48.838;9.324;2023-08-06T14:54:33;17.90;82.20
17452;DHT22;8843;48.838;9.324;2023-08-06T14:57:00;18.00;82.50
17452;DHT22;8843;48.838;9.324;2023-08-06T14:59:28;18.00;82.70
17452;DHT22;8843;48.838;9.324;2023-08-06T15:01:55;18.10;82.60
17452;DHT22;8843;48.838;9.324;2023-08-06T15:04:22;18.00;82.60
17452;DHT22;8843;48.838;9.324;2023-08-06T15:06:49;17.90;81.90
17452;DHT22;8843;48.838;9.324;2023-08-06T15:09:16;18.00;83.40
17452;DHT22;8843;48.838;9.324;2023-08-06T15:11:43;18.00;83.00
17452;DHT22;8843;48.838;9.324;2023-08-06T15:14:10;18.00;81.70
17452;DHT22;8843;48.838;9.324;2023-08-06T15:16:38;18.00;82.60
17452;DHT22;8843;48.838;9.324;2023-08-06T15:19:05;17.90;82.30
17452;DHT22;8843;48.838;9.324;2023-08-06T15:21:32;17.90;81.30
17452;DHT22;8843;48.838;9.324;2023-08-06T15:23:59;17.80;82.00
17452;DHT22;8843;48.838;9.324;2023-08-06T15:26:27;17.80;81.40
17452;DHT22;8843;48.838;9.324;2023-08-06T15:28:54;17.80;81.60
17452;DHT22;8843;48.838;9.324;2023-08-06T15:31:22;17.90;82.20
17452;DHT22;8843;48.838;9.324;2023-08-06T15:33:50;17.90;81.30
17452;DHT22;8843;48.838;9.324;2023-08-06T15:36:19;17.80;80.20
17452;DHT22;8843;48.838;9.324;2023-08-06T15:38:47;17.50;80.90
17452;DHT22;8843;48.838;9.324;2023-08-06T15:41:18;17.40;81.50
17452;DHT22;8843;48.838;9.324;2023-08-06T15:43:45;17.40;81.20
17452;DHT22;8843;48.838;9.324;2023-08-06T15:46:12;17.20;81.30
17452;DHT22;8843;48.838;9.324;2023-08-06T15:48:40;17.20;82.50